sensor_id;sensor_type;location;lat;lon;timestamp;P1;durP1;ratioP1;P2;durP2;ratioP2
49860;SDS011;35761;48.826;9.238;2022-08-11T00:02:32;5.10;;;2.15;;
49860;SDS011;35761;48.826;9.238;2022-08-11T00:05:05;4.13;;;1.50;;
49860;SDS011;35761;48.826;9.238;2022-08-11T00:07:41;3.35;;;1.60;;
49860;SDS011;35761;48.826;9.238;2022-08-11T00:10:12;3.88;;;1.77;;
49860;SDS011;35761;48.826;9.238;2022-08-11T00:12:43;4.60;;;1.90;;
49860;SDS011;35761;48.826;9.238;2022-08-11T00:15:18;3.50;;;1.88;;
49860;SDS011;35761;48.826;9.238;2022-08-11T00:17:48;6.57;;;2.00;;
49860;SDS011;35761;48.826;9.238;2022-08-11T00:20:27;10.77;;;2.10;;
49860;SDS011;35761;48.826;9.238;2022-08-11T00:23:00;2.83;;;1.77;;
49860;SDS011;35761;48.826;9.238;2022-08-11T00:25:30;3.92;;;1.63;;
49860;SDS011;35761;48.826;9.238;2022-08-11T00:28:19;3.67;;;1.80;;
49860;SDS011;35761;48.826;9.238;2022-08-11T00:30:53;4.07;;;1.75;;
49860;SDS011;35761;48.826;9.238;2022-08-11T00:33:23;5.50;;;1.80;;
49860;SDS011;35761;48.826;9.238;2022-08-11T00:36:12;4.18;;;1.70;;
49860;SDS011;35761;48.826;9.238;2022-08-11T00:38:48;2.45;;;1.85;;
49860;SDS011;35761;48.826;9.238;2022-08-11T00:41:22;3.80;;;1.63;;
49860;SDS011;35761;48.826;9.238;2022-08-11T00:44:11;3.00;;;1.50;;
49860;SDS011;35761;48.826;9.238;2022-08-11T00:47:03;6.43;;;1.98;;
49860;SDS011;35761;48.826;9.238;2022-08-11T00:49:45;5.65;;;2.03;;
49860;SDS011;35761;48.826;9.238;2022-08-11T00:56:00;5.95;;;1.77;;
49860;SDS011;35761;48.826;9.238;2022-08-11T01:02:49;4.30;;;2.03;;
49860;SDS011;35761;48.826;9.238;2022-08-11T01:05:59;4.53;;;2.00;;
49860;SDS011;35761;48.826;9.238;2022-08-11T01:09:05;9.55;;;2.25;;
49860;SDS011;35761;48.826;9.238;2022-08-11T01:18:33;5.47;;;2.05;;
49860;SDS011;35761;48.826;9.238;2022-08-11T01:21:33;8.98;;;2.00;;
49860;SDS011;35761;48.826;9.238;2022-08-11T01:25:10;5.32;;;2.03;;
49860;SDS011;35761;48.826;9.238;2022-08-11T01:44:44;3.97;;;2.10;;
49860;SDS011;35761;48.826;9.238;2022-08-11T01:47:54;5.70;;;2.20;;
49860;SDS011;35761;48.826;9.238;2022-08-11T01:53:33;4.55;;;2.00;;
49860;SDS011;35761;48.826;9.238;2022-08-11T01:56:21;4.20;;;2.17;;
49860;SDS011;35761;48.826;9.238;2022-08-11T01:59:07;5.78;;;2.63;;
49860;SDS011;35761;48.826;9.238;2022-08-11T02:01:53;5.63;;;3.05;;
49860;SDS011;35761;48.826;9.238;2022-08-11T02:04:49;8.90;;;3.10;;
49860;SDS011;35761;48.826;9.238;2022-08-11T02:07:29;7.20;;;2.45;;
49860;SDS011;35761;48.826;9.238;2022-08-11T02:10:10;11.07;;;2.60;;
49860;SDS011;35761;48.826;9.238;2022-08-11T02:13:17;5.47;;;2.50;;
49860;SDS011;35761;48.826;9.238;2022-08-11T02:16:04;5.68;;;2.33;;
49860;SDS011;35761;48.826;9.238;2022-08-11T02:18:46;6.20;;;2.35;;
49860;SDS011;35761;48.826;9.238;2022-08-11T02:21:39;5.60;;;2.72;;
49860;SDS011;35761;48.826;9.238;2022-08-11T02:24:34;5.20;;;2.40;;
49860;SDS011;35761;48.826;9.238;2022-08-11T02:27:13;5.50;;;2.42;;
49860;SDS011;35761;48.826;9.238;2022-08-11T02:29:51;4.45;;;2.05;;
49860;SDS011;35761;48.826;9.238;2022-08-11T02:32:32;4.93;;;2.42;;
49860;SDS011;35761;48.826;9.238;2022-08-11T02:35:26;8.27;;;2.92;;
49860;SDS011;35761;48.826;9.238;2022-08-11T02:38:02;9.40;;;2.92;;
49860;SDS011;35761;48.826;9.238;2022-08-11T02:40:44;7.35;;;2.92;;
49860;SDS011;35761;48.826;9.238;2022-08-11T02:43:26;8.38;;;2.83;;
49860;SDS011;35761;48.826;9.238;2022-08-11T02:46:17;7.40;;;3.08;;
49860;SDS011;35761;48.826;9.238;2022-08-11T02:48:58;5.53;;;2.50;;
49860;SDS011;35761;48.826;9.238;2022-08-11T02:51:59;7.30;;;2.78;;
49860;SDS011;35761;48.826;9.238;2022-08-11T02:54:35;5.78;;;2.90;;
49860;SDS011;35761;48.826;9.238;2022-08-11T02:57:15;8.68;;;3.13;;
49860;SDS011;35761;48.826;9.238;2022-08-11T02:59:50;6.32;;;3.10;;
49860;SDS011;35761;48.826;9.238;2022-08-11T03:08:35;4.55;;;2.83;;
49860;SDS011;35761;48.826;9.238;2022-08-11T03:11:20;5.80;;;2.80;;
49860;SDS011;35761;48.826;9.238;2022-08-11T03:14:32;5.60;;;2.80;;
49860;SDS011;35761;48.826;9.238;2022-08-11T03:17:27;8.77;;;3.08;;
49860;SDS011;35761;48.826;9.238;2022-08-11T03:20:10;3.90;;;2.53;;
49860;SDS011;35761;48.826;9.238;2022-08-11T03:23:10;6.50;;;2.70;;
49860;SDS011;35761;48.826;9.238;2022-08-11T03:26:01;8.73;;;3.35;;
49860;SDS011;35761;48.826;9.238;2022-08-11T03:28:37;7.05;;;4.45;;
49860;SDS011;35761;48.826;9.238;2022-08-11T03:31:22;4.82;;;3.20;;
49860;SDS011;35761;48.826;9.238;2022-08-11T03:33:57;5.28;;;3.08;;
49860;SDS011;35761;48.826;9.238;2022-08-11T03:39:49;14.75;;;3.40;;
49860;SDS011;35761;48.826;9.238;2022-08-11T03:42:27;7.88;;;3.03;;
49860;SDS011;35761;48.826;9.238;2022-08-11T03:45:15;8.35;;;2.55;;
49860;SDS011;35761;48.826;9.238;2022-08-11T03:48:05;9.15;;;2.55;;
49860;SDS011;35761;48.826;9.238;2022-08-11T03:50:51;12.25;;;2.83;;
49860;SDS011;35761;48.826;9.238;2022-08-11T03:53:34;4.63;;;2.45;;
49860;SDS011;35761;48.826;9.238;2022-08-11T03:59:42;6.57;;;2.50;;
49860;SDS011;35761;48.826;9.238;2022-08-11T04:02:56;12.18;;;2.80;;
49860;SDS011;35761;48.826;9.238;2022-08-11T04:09:51;7.20;;;2.78;;
49860;SDS011;35761;48.826;9.238;2022-08-11T04:13:01;6.80;;;2.53;;
49860;SDS011;35761;48.826;9.238;2022-08-11T04:16:14;5.63;;;2.92;;
49860;SDS011;35761;48.826;9.238;2022-08-11T04:22:37;6.90;;;3.13;;
49860;SDS011;35761;48.826;9.238;2022-08-11T04:25:35;17.75;;;4.25;;
49860;SDS011;35761;48.826;9.238;2022-08-11T04:28:56;7.15;;;2.70;;
49860;SDS011;35761;48.826;9.238;2022-08-11T04:31:36;6.65;;;2.72;;
49860;SDS011;35761;48.826;9.238;2022-08-11T04:37:26;5.43;;;2.67;;
49860;SDS011;35761;48.826;9.238;2022-08-11T04:40:32;18.02;;;3.63;;
49860;SDS011;35761;48.826;9.238;2022-08-11T04:46:53;4.18;;;2.45;;
49860;SDS011;35761;48.826;9.238;2022-08-11T04:50:00;7.30;;;2.85;;
49860;SDS011;35761;48.826;9.238;2022-08-11T04:53:09;8.32;;;3.53;;
49860;SDS011;35761;48.826;9.238;2022-08-11T04:56:08;26.02;;;8.95;;
49860;SDS011;35761;48.826;9.238;2022-08-11T04:59:04;6.00;;;2.83;;
49860;SDS011;35761;48.826;9.238;2022-08-11T05:05:39;12.32;;;3.13;;
49860;SDS011;35761;48.826;9.238;2022-08-11T05:12:00;13.32;;;2.80;;
49860;SDS011;35761;48.826;9.238;2022-08-11T05:14:44;6.13;;;3.10;;
49860;SDS011;35761;48.826;9.238;2022-08-11T05:17:39;10.68;;;2.85;;
49860;SDS011;35761;48.826;9.238;2022-08-11T05:20:45;8.57;;;2.95;;
49860;SDS011;35761;48.826;9.238;2022-08-11T05:23:35;6.82;;;2.63;;
49860;SDS011;35761;48.826;9.238;2022-08-11T05:26:27;12.18;;;4.60;;
49860;SDS011;35761;48.826;9.238;2022-08-11T05:29:25;9.10;;;4.88;;
49860;SDS011;35761;48.826;9.238;2022-08-11T05:32:24;9.18;;;3.85;;
49860;SDS011;35761;48.826;9.238;2022-08-11T05:35:28;11.90;;;3.15;;
49860;SDS011;35761;48.826;9.238;2022-08-11T05:38:23;7.18;;;2.65;;
49860;SDS011;35761;48.826;9.238;2022-08-11T05:41:11;9.05;;;2.75;;
49860;SDS011;35761;48.826;9.238;2022-08-11T05:44:00;7.28;;;2.80;;
49860;SDS011;35761;48.826;9.238;2022-08-11T05:46:48;7.55;;;2.60;;
49860;SDS011;35761;48.826;9.238;2022-08-11T05:49:35;9.27;;;2.80;;
49860;SDS011;35761;48.826;9.238;2022-08-11T05:52:24;4.80;;;2.50;;
49860;SDS011;35761;48.826;9.238;2022-08-11T05:55:23;6.75;;;3.03;;
49860;SDS011;35761;48.826;9.238;2022-08-11T05:58:32;6.30;;;2.88;;
49860;SDS011;35761;48.826;9.238;2022-08-11T06:01:08;7.72;;;3.20;;
49860;SDS011;35761;48.826;9.238;2022-08-11T06:03:39;6.43;;;2.85;;
49860;SDS011;35761;48.826;9.238;2022-08-11T06:06:29;12.35;;;2.92;;
49860;SDS011;35761;48.826;9.238;2022-08-11T06:08:58;6.03;;;2.92;;
49860;SDS011;35761;48.826;9.238;2022-08-11T06:11:29;10.98;;;3.17;;
49860;SDS011;35761;48.826;9.238;2022-08-11T06:14:10;6.30;;;2.50;;
49860;SDS011;35761;48.826;9.238;2022-08-11T06:16:41;4.10;;;2.47;;
49860;SDS011;35761;48.826;9.238;2022-08-11T06:19:14;6.05;;;2.47;;
49860;SDS011;35761;48.826;9.238;2022-08-11T06:21:45;4.47;;;2.78;;
49860;SDS011;35761;48.826;9.238;2022-08-11T06:24:14;4.78;;;2.53;;
49860;SDS011;35761;48.826;9.238;2022-08-11T06:26:47;6.18;;;2.42;;
49860;SDS011;35761;48.826;9.238;2022-08-11T06:29:45;9.15;;;3.30;;
49860;SDS011;35761;48.826;9.238;2022-08-11T06:32:22;9.68;;;3.10;;
49860;SDS011;35761;48.826;9.238;2022-08-11T06:35:07;5.78;;;2.38;;
49860;SDS011;35761;48.826;9.238;2022-08-11T06:37:45;6.03;;;2.60;;
49860;SDS011;35761;48.826;9.238;2022-08-11T06:40:34;8.85;;;2.75;;
49860;SDS011;35761;48.826;9.238;2022-08-11T06:43:14;8.60;;;2.80;;
49860;SDS011;35761;48.826;9.238;2022-08-11T06:45:48;7.15;;;2.42;;
49860;SDS011;35761;48.826;9.238;2022-08-11T06:48:23;4.80;;;2.35;;
49860;SDS011;35761;48.826;9.238;2022-08-11T06:50:55;5.85;;;2.45;;
49860;SDS011;35761;48.826;9.238;2022-08-11T06:53:39;6.38;;;2.50;;
49860;SDS011;35761;48.826;9.238;2022-08-11T06:56:30;5.57;;;2.58;;
49860;SDS011;35761;48.826;9.238;2022-08-11T06:59:43;7.03;;;2.47;;
49860;SDS011;35761;48.826;9.238;2022-08-11T07:02:30;6.00;;;2.60;;
49860;SDS011;35761;48.826;9.238;2022-08-11T07:05:04;5.45;;;2.47;;
49860;SDS011;35761;48.826;9.238;2022-08-11T07:11:37;6.00;;;3.08;;
49860;SDS011;35761;48.826;9.238;2022-08-11T07:14:40;6.15;;;2.40;;
49860;SDS011;35761;48.826;9.238;2022-08-11T07:17:37;7.70;;;2.55;;
49860;SDS011;35761;48.826;9.238;2022-08-11T07:20:15;8.15;;;2.50;;
49860;SDS011;35761;48.826;9.238;2022-08-11T07:23:02;5.88;;;2.58;;
49860;SDS011;35761;48.826;9.238;2022-08-11T07:25:51;7.97;;;2.47;;
49860;SDS011;35761;48.826;9.238;2022-08-11T07:28:41;7.65;;;3.40;;
49860;SDS011;35761;48.826;9.238;2022-08-11T07:31:33;8.07;;;2.70;;
49860;SDS011;35761;48.826;9.238;2022-08-11T07:34:11;6.97;;;2.70;;
49860;SDS011;35761;48.826;9.238;2022-08-11T07:36:46;10.23;;;3.03;;
49860;SDS011;35761;48.826;9.238;2022-08-11T07:39:20;5.50;;;3.03;;
49860;SDS011;35761;48.826;9.238;2022-08-11T07:41:52;4.00;;;2.40;;
49860;SDS011;35761;48.826;9.238;2022-08-11T07:44:24;9.00;;;2.92;;
49860;SDS011;35761;48.826;9.238;2022-08-11T07:47:02;4.85;;;2.30;;
49860;SDS011;35761;48.826;9.238;2022-08-11T07:49:56;7.15;;;2.70;;
49860;SDS011;35761;48.826;9.238;2022-08-11T07:52:44;6.00;;;2.33;;
49860;SDS011;35761;48.826;9.238;2022-08-11T07:55:20;7.72;;;2.40;;
49860;SDS011;35761;48.826;9.238;2022-08-11T07:58:11;8.73;;;2.80;;
49860;SDS011;35761;48.826;9.238;2022-08-11T08:01:11;7.05;;;2.67;;
49860;SDS011;35761;48.826;9.238;2022-08-11T08:04:05;4.78;;;2.63;;
49860;SDS011;35761;48.826;9.238;2022-08-11T08:06:54;7.82;;;3.95;;
49860;SDS011;35761;48.826;9.238;2022-08-11T08:09:42;4.32;;;2.53;;
49860;SDS011;35761;48.826;9.238;2022-08-11T08:12:28;6.85;;;2.50;;
49860;SDS011;35761;48.826;9.238;2022-08-11T08:15:15;4.55;;;2.60;;
49860;SDS011;35761;48.826;9.238;2022-08-11T08:18:03;6.85;;;2.50;;
49860;SDS011;35761;48.826;9.238;2022-08-11T08:20:54;5.63;;;2.70;;
49860;SDS011;35761;48.826;9.238;2022-08-11T08:23:37;5.05;;;2.40;;
49860;SDS011;35761;48.826;9.238;2022-08-11T08:26:07;4.88;;;2.20;;
49860;SDS011;35761;48.826;9.238;2022-08-11T08:28:53;7.07;;;2.78;;
49860;SDS011;35761;48.826;9.238;2022-08-11T08:31:47;6.20;;;2.20;;
49860;SDS011;35761;48.826;9.238;2022-08-11T08:34:16;5.43;;;2.33;;
49860;SDS011;35761;48.826;9.238;2022-08-11T08:36:48;7.13;;;2.40;;
49860;SDS011;35761;48.826;9.238;2022-08-11T08:39:18;5.13;;;2.05;;
49860;SDS011;35761;48.826;9.238;2022-08-11T08:41:48;6.93;;;2.20;;
49860;SDS011;35761;48.826;9.238;2022-08-11T08:44:21;5.50;;;2.20;;
49860;SDS011;35761;48.826;9.238;2022-08-11T08:47:11;3.90;;;2.13;;
49860;SDS011;35761;48.826;9.238;2022-08-11T08:50:04;5.15;;;2.20;;
49860;SDS011;35761;48.826;9.238;2022-08-11T08:52:46;5.15;;;2.15;;
49860;SDS011;35761;48.826;9.238;2022-08-11T08:55:21;4.18;;;2.20;;
49860;SDS011;35761;48.826;9.238;2022-08-11T08:57:50;6.47;;;2.28;;
49860;SDS011;35761;48.826;9.238;2022-08-11T09:00:21;6.72;;;2.30;;
49860;SDS011;35761;48.826;9.238;2022-08-11T09:02:50;5.57;;;2.40;;
49860;SDS011;35761;48.826;9.238;2022-08-11T09:05:20;6.20;;;1.92;;
49860;SDS011;35761;48.826;9.238;2022-08-11T09:07:52;6.28;;;2.25;;
49860;SDS011;35761;48.826;9.238;2022-08-11T09:10:23;3.20;;;1.90;;
49860;SDS011;35761;48.826;9.238;2022-08-11T09:12:55;7.30;;;2.22;;
49860;SDS011;35761;48.826;9.238;2022-08-11T09:15:26;4.13;;;2.03;;
49860;SDS011;35761;48.826;9.238;2022-08-11T09:17:56;5.43;;;1.83;;
49860;SDS011;35761;48.826;9.238;2022-08-11T09:20:32;4.07;;;1.85;;
49860;SDS011;35761;48.826;9.238;2022-08-11T09:23:06;5.43;;;1.80;;
49860;SDS011;35761;48.826;9.238;2022-08-11T09:26:12;8.48;;;1.92;;
49860;SDS011;35761;48.826;9.238;2022-08-11T09:28:59;4.78;;;1.88;;
49860;SDS011;35761;48.826;9.238;2022-08-11T09:31:30;7.95;;;2.05;;
49860;SDS011;35761;48.826;9.238;2022-08-11T09:34:05;8.07;;;2.17;;
49860;SDS011;35761;48.826;9.238;2022-08-11T09:36:34;4.03;;;1.85;;
49860;SDS011;35761;48.826;9.238;2022-08-11T09:39:24;7.90;;;2.20;;
49860;SDS011;35761;48.826;9.238;2022-08-11T09:42:11;7.68;;;2.03;;
49860;SDS011;35761;48.826;9.238;2022-08-11T09:44:48;5.13;;;1.85;;
49860;SDS011;35761;48.826;9.238;2022-08-11T09:47:19;5.18;;;1.88;;
49860;SDS011;35761;48.826;9.238;2022-08-11T09:49:50;5.57;;;1.90;;
49860;SDS011;35761;48.826;9.238;2022-08-11T09:52:25;4.65;;;2.00;;
49860;SDS011;35761;48.826;9.238;2022-08-11T09:54:57;6.15;;;1.83;;
49860;SDS011;35761;48.826;9.238;2022-08-11T09:57:26;3.17;;;1.83;;
49860;SDS011;35761;48.826;9.238;2022-08-11T10:00:14;7.38;;;1.85;;
49860;SDS011;35761;48.826;9.238;2022-08-11T10:02:44;6.75;;;1.98;;
49860;SDS011;35761;48.826;9.238;2022-08-11T10:05:16;7.88;;;1.90;;
49860;SDS011;35761;48.826;9.238;2022-08-11T10:08:04;4.55;;;1.70;;
49860;SDS011;35761;48.826;9.238;2022-08-11T10:10:37;4.55;;;2.38;;
49860;SDS011;35761;48.826;9.238;2022-08-11T10:13:08;2.63;;;2.00;;
49860;SDS011;35761;48.826;9.238;2022-08-11T10:16:02;4.43;;;1.95;;
49860;SDS011;35761;48.826;9.238;2022-08-11T10:18:42;4.65;;;1.70;;
49860;SDS011;35761;48.826;9.238;2022-08-11T10:21:23;3.15;;;1.80;;
49860;SDS011;35761;48.826;9.238;2022-08-11T10:23:56;5.05;;;1.90;;
49860;SDS011;35761;48.826;9.238;2022-08-11T10:26:46;4.50;;;1.80;;
49860;SDS011;35761;48.826;9.238;2022-08-11T10:29:20;6.57;;;1.98;;
49860;SDS011;35761;48.826;9.238;2022-08-11T10:32:25;2.90;;;1.90;;
49860;SDS011;35761;48.826;9.238;2022-08-11T10:35:25;4.28;;;1.85;;
49860;SDS011;35761;48.826;9.238;2022-08-11T10:37:55;5.47;;;1.70;;
49860;SDS011;35761;48.826;9.238;2022-08-11T10:40:36;4.30;;;2.13;;
49860;SDS011;35761;48.826;9.238;2022-08-11T10:43:08;4.00;;;1.90;;
49860;SDS011;35761;48.826;9.238;2022-08-11T10:45:40;3.92;;;1.95;;
49860;SDS011;35761;48.826;9.238;2022-08-11T10:48:29;2.97;;;1.70;;
49860;SDS011;35761;48.826;9.238;2022-08-11T10:51:04;3.40;;;1.70;;
49860;SDS011;35761;48.826;9.238;2022-08-11T10:53:41;8.40;;;2.95;;
49860;SDS011;35761;48.826;9.238;2022-08-11T10:56:31;5.30;;;1.95;;
49860;SDS011;35761;48.826;9.238;2022-08-11T10:59:25;4.05;;;1.90;;
49860;SDS011;35761;48.826;9.238;2022-08-11T11:01:56;10.93;;;4.07;;
49860;SDS011;35761;48.826;9.238;2022-08-11T11:04:27;18.55;;;5.90;;
49860;SDS011;35761;48.826;9.238;2022-08-11T11:07:07;8.25;;;3.15;;
49860;SDS011;35761;48.826;9.238;2022-08-11T11:09:43;6.28;;;2.45;;
49860;SDS011;35761;48.826;9.238;2022-08-11T11:12:17;15.52;;;4.70;;
49860;SDS011;35761;48.826;9.238;2022-08-11T11:15:10;14.63;;;3.92;;
49860;SDS011;35761;48.826;9.238;2022-08-11T11:18:00;8.82;;;2.50;;
49860;SDS011;35761;48.826;9.238;2022-08-11T11:20:38;5.47;;;2.03;;
49860;SDS011;35761;48.826;9.238;2022-08-11T11:23:15;7.60;;;2.97;;
49860;SDS011;35761;48.826;9.238;2022-08-11T11:32:19;5.20;;;1.92;;
49860;SDS011;35761;48.826;9.238;2022-08-11T11:35:01;8.65;;;2.22;;
49860;SDS011;35761;48.826;9.238;2022-08-11T11:37:44;6.65;;;2.30;;
49860;SDS011;35761;48.826;9.238;2022-08-11T11:40:31;3.45;;;1.85;;
49860;SDS011;35761;48.826;9.238;2022-08-11T11:43:00;8.40;;;1.92;;
49860;SDS011;35761;48.826;9.238;2022-08-11T11:45:29;6.07;;;1.70;;
49860;SDS011;35761;48.826;9.238;2022-08-11T11:47:59;4.70;;;1.65;;
49860;SDS011;35761;48.826;9.238;2022-08-11T11:50:29;3.72;;;1.90;;
49860;SDS011;35761;48.826;9.238;2022-08-11T11:53:02;5.18;;;1.90;;
49860;SDS011;35761;48.826;9.238;2022-08-11T11:55:32;3.42;;;1.80;;
49860;SDS011;35761;48.826;9.238;2022-08-11T11:58:03;9.63;;;1.83;;
49860;SDS011;35761;48.826;9.238;2022-08-11T12:00:51;4.00;;;1.98;;
49860;SDS011;35761;48.826;9.238;2022-08-11T12:03:39;5.13;;;1.67;;
49860;SDS011;35761;48.826;9.238;2022-08-11T12:06:08;3.65;;;2.10;;
49860;SDS011;35761;48.826;9.238;2022-08-11T12:08:39;6.93;;;1.60;;
49860;SDS011;35761;48.826;9.238;2022-08-11T12:11:10;3.88;;;1.80;;
49860;SDS011;35761;48.826;9.238;2022-08-11T12:13:57;3.53;;;1.85;;
49860;SDS011;35761;48.826;9.238;2022-08-11T12:16:36;3.13;;;1.70;;
49860;SDS011;35761;48.826;9.238;2022-08-11T12:19:10;18.50;;;1.90;;
49860;SDS011;35761;48.826;9.238;2022-08-11T12:21:41;4.93;;;2.00;;
49860;SDS011;35761;48.826;9.238;2022-08-11T12:24:26;8.18;;;2.10;;
49860;SDS011;35761;48.826;9.238;2022-08-11T12:27:13;2.22;;;1.50;;
49860;SDS011;35761;48.826;9.238;2022-08-11T12:29:52;3.60;;;1.58;;
49860;SDS011;35761;48.826;9.238;2022-08-11T12:32:24;3.55;;;1.73;;
49860;SDS011;35761;48.826;9.238;2022-08-11T12:34:58;2.55;;;1.60;;
49860;SDS011;35761;48.826;9.238;2022-08-11T12:37:28;3.08;;;1.70;;
49860;SDS011;35761;48.826;9.238;2022-08-11T12:40:00;5.70;;;1.83;;
49860;SDS011;35761;48.826;9.238;2022-08-11T12:43:14;4.68;;;1.90;;
49860;SDS011;35761;48.826;9.238;2022-08-11T12:46:06;4.65;;;2.20;;
49860;SDS011;35761;48.826;9.238;2022-08-11T12:48:40;3.83;;;1.83;;
49860;SDS011;35761;48.826;9.238;2022-08-11T12:51:32;4.63;;;1.90;;
49860;SDS011;35761;48.826;9.238;2022-08-11T12:54:43;2.38;;;1.63;;
49860;SDS011;35761;48.826;9.238;2022-08-11T12:57:19;9.15;;;1.50;;
49860;SDS011;35761;48.826;9.238;2022-08-11T13:00:13;3.83;;;1.85;;
49860;SDS011;35761;48.826;9.238;2022-08-11T13:03:00;5.10;;;1.90;;
49860;SDS011;35761;48.826;9.238;2022-08-11T13:05:48;6.57;;;2.20;;
49860;SDS011;35761;48.826;9.238;2022-08-11T13:08:22;3.85;;;1.50;;
49860;SDS011;35761;48.826;9.238;2022-08-11T13:10:54;7.57;;;1.88;;
49860;SDS011;35761;48.826;9.238;2022-08-11T13:13:43;3.55;;;1.90;;
49860;SDS011;35761;48.826;9.238;2022-08-11T13:16:21;7.50;;;1.83;;
49860;SDS011;35761;48.826;9.238;2022-08-11T13:18:52;2.75;;;1.60;;
49860;SDS011;35761;48.826;9.238;2022-08-11T13:21:22;5.85;;;1.70;;
49860;SDS011;35761;48.826;9.238;2022-08-11T13:23:52;6.40;;;1.75;;
49860;SDS011;35761;48.826;9.238;2022-08-11T13:26:31;2.55;;;1.45;;
49860;SDS011;35761;48.826;9.238;2022-08-11T13:29:15;11.05;;;1.60;;
49860;SDS011;35761;48.826;9.238;2022-08-11T13:31:46;5.85;;;2.65;;
49860;SDS011;35761;48.826;9.238;2022-08-11T13:34:15;4.60;;;1.70;;
49860;SDS011;35761;48.826;9.238;2022-08-11T13:36:46;2.53;;;1.58;;
49860;SDS011;35761;48.826;9.238;2022-08-11T13:39:20;3.55;;;1.70;;
49860;SDS011;35761;48.826;9.238;2022-08-11T13:41:51;9.98;;;1.65;;
49860;SDS011;35761;48.826;9.238;2022-08-11T13:44:23;8.25;;;1.88;;
49860;SDS011;35761;48.826;9.238;2022-08-11T13:46:55;7.10;;;2.47;;
49860;SDS011;35761;48.826;9.238;2022-08-11T13:49:27;2.75;;;1.70;;
49860;SDS011;35761;48.826;9.238;2022-08-11T13:51:57;9.60;;;1.60;;
49860;SDS011;35761;48.826;9.238;2022-08-11T13:54:29;5.28;;;1.58;;
49860;SDS011;35761;48.826;9.238;2022-08-11T13:56:59;5.80;;;1.20;;
49860;SDS011;35761;48.826;9.238;2022-08-11T13:59:39;3.60;;;1.85;;
49860;SDS011;35761;48.826;9.238;2022-08-11T14:02:19;4.38;;;1.40;;
49860;SDS011;35761;48.826;9.238;2022-08-11T14:04:56;4.78;;;1.60;;
49860;SDS011;35761;48.826;9.238;2022-08-11T14:07:33;4.15;;;1.23;;
49860;SDS011;35761;48.826;9.238;2022-08-11T14:10:08;2.45;;;1.10;;
49860;SDS011;35761;48.826;9.238;2022-08-11T14:12:42;2.60;;;1.50;;
49860;SDS011;35761;48.826;9.238;2022-08-11T14:15:42;2.70;;;1.30;;
49860;SDS011;35761;48.826;9.238;2022-08-11T14:18:13;4.03;;;1.42;;
49860;SDS011;35761;48.826;9.238;2022-08-11T14:20:48;3.85;;;1.90;;
49860;SDS011;35761;48.826;9.238;2022-08-11T14:23:39;6.57;;;1.45;;
49860;SDS011;35761;48.826;9.238;2022-08-11T14:26:12;7.32;;;1.40;;
49860;SDS011;35761;48.826;9.238;2022-08-11T14:28:53;2.92;;;1.40;;
49860;SDS011;35761;48.826;9.238;2022-08-11T14:31:25;4.78;;;1.50;;
49860;SDS011;35761;48.826;9.238;2022-08-11T14:33:56;2.40;;;1.55;;
49860;SDS011;35761;48.826;9.238;2022-08-11T14:36:29;7.68;;;1.67;;
49860;SDS011;35761;48.826;9.238;2022-08-11T14:39:02;6.00;;;1.58;;
49860;SDS011;35761;48.826;9.238;2022-08-11T14:41:40;2.97;;;1.40;;
49860;SDS011;35761;48.826;9.238;2022-08-11T14:44:39;6.55;;;1.40;;
49860;SDS011;35761;48.826;9.238;2022-08-11T14:47:44;6.45;;;1.63;;
49860;SDS011;35761;48.826;9.238;2022-08-11T14:50:17;4.93;;;1.63;;
49860;SDS011;35761;48.826;9.238;2022-08-11T14:52:49;7.47;;;1.75;;
49860;SDS011;35761;48.826;9.238;2022-08-11T14:55:24;1.88;;;1.20;;
49860;SDS011;35761;48.826;9.238;2022-08-11T14:58:16;4.70;;;1.17;;
49860;SDS011;35761;48.826;9.238;2022-08-11T15:00:49;2.25;;;1.30;;
49860;SDS011;35761;48.826;9.238;2022-08-11T15:03:23;6.43;;;1.60;;
49860;SDS011;35761;48.826;9.238;2022-08-11T15:05:55;4.57;;;1.58;;
49860;SDS011;35761;48.826;9.238;2022-08-11T15:08:26;6.10;;;1.48;;
49860;SDS011;35761;48.826;9.238;2022-08-11T15:11:15;5.57;;;1.50;;
49860;SDS011;35761;48.826;9.238;2022-08-11T15:14:05;3.67;;;1.55;;
49860;SDS011;35761;48.826;9.238;2022-08-11T15:16:35;3.80;;;1.57;;
49860;SDS011;35761;48.826;9.238;2022-08-11T15:19:22;9.52;;;1.58;;
49860;SDS011;35761;48.826;9.238;2022-08-11T15:22:06;7.10;;;1.70;;
49860;SDS011;35761;48.826;9.238;2022-08-11T15:24:56;5.70;;;1.05;;
49860;SDS011;35761;48.826;9.238;2022-08-11T15:27:25;4.93;;;1.20;;
49860;SDS011;35761;48.826;9.238;2022-08-11T15:30:16;2.45;;;1.30;;
49860;SDS011;35761;48.826;9.238;2022-08-11T15:33:03;8.60;;;1.30;;
49860;SDS011;35761;48.826;9.238;2022-08-11T15:35:52;3.85;;;1.48;;
49860;SDS011;35761;48.826;9.238;2022-08-11T15:38:41;8.93;;;1.50;;
49860;SDS011;35761;48.826;9.238;2022-08-11T15:41:21;3.45;;;1.35;;
49860;SDS011;35761;48.826;9.238;2022-08-11T15:44:25;3.22;;;1.50;;
49860;SDS011;35761;48.826;9.238;2022-08-11T15:47:34;3.70;;;1.58;;
49860;SDS011;35761;48.826;9.238;2022-08-11T15:50:08;4.35;;;1.50;;
49860;SDS011;35761;48.826;9.238;2022-08-11T15:52:43;10.30;;;1.38;;
49860;SDS011;35761;48.826;9.238;2022-08-11T15:55:17;6.53;;;1.42;;
49860;SDS011;35761;48.826;9.238;2022-08-11T15:57:49;6.60;;;1.55;;
49860;SDS011;35761;48.826;9.238;2022-08-11T16:00:37;7.00;;;1.60;;
49860;SDS011;35761;48.826;9.238;2022-08-11T16:03:39;2.85;;;1.40;;
49860;SDS011;35761;48.826;9.238;2022-08-11T16:06:38;4.75;;;1.85;;
49860;SDS011;35761;48.826;9.238;2022-08-11T16:09:22;4.03;;;1.63;;
49860;SDS011;35761;48.826;9.238;2022-08-11T16:12:16;4.57;;;1.67;;
49860;SDS011;35761;48.826;9.238;2022-08-11T16:14:49;5.75;;;2.00;;
49860;SDS011;35761;48.826;9.238;2022-08-11T16:17:39;7.07;;;1.60;;
49860;SDS011;35761;48.826;9.238;2022-08-11T16:20:13;4.60;;;1.58;;
49860;SDS011;35761;48.826;9.238;2022-08-11T16:22:47;1.95;;;1.40;;
49860;SDS011;35761;48.826;9.238;2022-08-11T16:25:28;7.35;;;1.52;;
49860;SDS011;35761;48.826;9.238;2022-08-11T16:28:21;4.32;;;1.52;;
49860;SDS011;35761;48.826;9.238;2022-08-11T16:30:51;5.18;;;1.48;;
49860;SDS011;35761;48.826;9.238;2022-08-11T16:33:21;4.55;;;1.27;;
49860;SDS011;35761;48.826;9.238;2022-08-11T16:36:12;2.70;;;1.40;;
49860;SDS011;35761;48.826;9.238;2022-08-11T16:39:00;3.55;;;1.52;;
49860;SDS011;35761;48.826;9.238;2022-08-11T16:41:31;3.05;;;1.50;;
49860;SDS011;35761;48.826;9.238;2022-08-11T16:44:20;2.33;;;1.60;;
49860;SDS011;35761;48.826;9.238;2022-08-11T16:47:09;3.03;;;1.40;;
49860;SDS011;35761;48.826;9.238;2022-08-11T16:49:42;3.53;;;1.27;;
49860;SDS011;35761;48.826;9.238;2022-08-11T16:52:20;7.40;;;1.65;;
49860;SDS011;35761;48.826;9.238;2022-08-11T16:54:50;10.82;;;1.65;;
49860;SDS011;35761;48.826;9.238;2022-08-11T16:57:19;4.05;;;1.70;;
49860;SDS011;35761;48.826;9.238;2022-08-11T17:00:09;5.00;;;1.27;;
49860;SDS011;35761;48.826;9.238;2022-08-11T17:02:44;2.85;;;1.48;;
49860;SDS011;35761;48.826;9.238;2022-08-11T17:05:34;4.72;;;1.50;;
49860;SDS011;35761;48.826;9.238;2022-08-11T17:08:28;2.75;;;1.40;;
49860;SDS011;35761;48.826;9.238;2022-08-11T17:11:24;7.25;;;1.75;;
49860;SDS011;35761;48.826;9.238;2022-08-11T17:14:14;8.02;;;1.67;;
49860;SDS011;35761;48.826;9.238;2022-08-11T17:17:02;2.22;;;1.23;;
49860;SDS011;35761;48.826;9.238;2022-08-11T17:19:34;2.85;;;1.42;;
49860;SDS011;35761;48.826;9.238;2022-08-11T17:22:24;6.22;;;1.70;;
49860;SDS011;35761;48.826;9.238;2022-08-11T17:25:14;2.78;;;1.48;;
49860;SDS011;35761;48.826;9.238;2022-08-11T17:27:44;6.50;;;1.50;;
49860;SDS011;35761;48.826;9.238;2022-08-11T17:30:15;2.95;;;1.50;;
49860;SDS011;35761;48.826;9.238;2022-08-11T17:32:46;10.93;;;1.88;;
49860;SDS011;35761;48.826;9.238;2022-08-11T17:35:36;3.45;;;1.60;;
49860;SDS011;35761;48.826;9.238;2022-08-11T17:38:11;8.85;;;1.58;;
49860;SDS011;35761;48.826;9.238;2022-08-11T17:40:46;5.47;;;1.50;;